»·PEaware :: N203WA KPSP-KTOA

N203WA :: KPSP-KTOA

FLIGHT INFORMATION

Flight Status: Arrived
Operator: Privately registered:
United States
More flights under this callsign
Pilot: Scott R. (7279)
Aircraft: Unknown
(G58)
More flights by this aircraft type
Origin: KPSP Palm Springs Intl
United States
Destination: KTOA Zamperini
United States
More flights between these airports :: More routes between these airports
Route: CATH1 PSP V388 ACINS V283 SLI
File this flight plan on PilotEdge
Remarks:
Altitude:
(Current/Filed)
8,000ft
Speed:
(Current/Filed)
180kts
Departed: 05-Mar-17 05:35 PM
Arrived: 05-Mar-17 06:22 PM
Distance/Time
Traveled:
92nm/0:46
Distance/Time
To Go:
Arrived

Flight Plot

Page will automatically refresh every two minutes.


Map Options




Map Legend


Flown Route
Filed Route
Departure Airport
Arrival Airport
Navaid (VOR, NDB)
Fix

Horizontal Profiles

Position Reports

Time Latitude Longitude Heading Altitude Ground
Speed
05-Mar-17 17:06 33.824084 -116.498977 55 477ft 0kts
05-Mar-17 17:07 33.824084 -116.498977 55 477ft 0kts
05-Mar-17 17:08 33.824084 -116.498977 55 477ft 0kts
05-Mar-17 17:09 33.824084 -116.498977 55 477ft 0kts
05-Mar-17 17:10 33.824084 -116.498977 55 477ft 0kts
05-Mar-17 17:11 33.824084 -116.498977 55 477ft 0kts
05-Mar-17 17:12 33.824084 -116.498977 55 477ft 0kts
05-Mar-17 17:13 33.824084 -116.498977 55 477ft 0kts
05-Mar-17 17:14 33.824084 -116.498977 55 477ft 0kts
05-Mar-17 17:15 33.824084 -116.498977 55 477ft 0kts
05-Mar-17 17:16 33.824084 -116.498977 55 477ft 0kts
05-Mar-17 17:17 33.824084 -116.498977 55 477ft 0kts
05-Mar-17 17:18 33.824084 -116.498977 55 477ft 0kts
05-Mar-17 17:19 33.824084 -116.498977 55 477ft 0kts
05-Mar-17 17:20 33.824084 -116.498977 55 477ft 0kts
05-Mar-17 17:21 33.824084 -116.498977 55 477ft 0kts
05-Mar-17 17:22 33.824084 -116.498977 55 477ft 0kts
05-Mar-17 17:23 33.824084 -116.498977 55 477ft 0kts
05-Mar-17 17:24 33.824084 -116.498977 55 477ft 0kts
05-Mar-17 17:25 33.824084 -116.498977 55 477ft 0kts
05-Mar-17 17:26 33.824084 -116.498977 55 477ft 0kts
05-Mar-17 17:27 33.824084 -116.498977 55 477ft 0kts
05-Mar-17 17:28 33.824084 -116.498977 55 477ft 0kts
05-Mar-17 17:29 33.824084 -116.498977 55 477ft 0kts
05-Mar-17 17:30 33.824085 -116.498974 57 477ft 0kts
05-Mar-17 17:31 33.825742 -116.500303 320 477ft 18kts
05-Mar-17 17:32 33.831995 -116.505847 324 477ft 26kts
05-Mar-17 17:33 33.835387 -116.509178 252 477ft 3kts
05-Mar-17 17:34 33.835380 -116.509194 241 477ft 0kts
05-Mar-17 17:35 33.834773 -116.509319 142 477ft 24kts
05-Mar-17 17:36 33.816580 -116.484885 110 1590ft 119kts
05-Mar-17 17:37 33.803378 -116.447556 108 3152ft 125kts
05-Mar-17 17:38 33.808812 -116.410181 63 4521ft 129kts
05-Mar-17 17:39 33.831201 -116.376600 54 5770ft 130kts
05-Mar-17 17:40 33.855309 -116.347359 355 6852ft 132kts
05-Mar-17 17:41 33.868052 -116.387015 272 7518ft 146kts
05-Mar-17 17:42 33.870508 -116.436003 275 8198ft 147kts
05-Mar-17 17:43 33.874995 -116.485303 276 8846ft 149kts
05-Mar-17 17:44 33.879477 -116.535209 276 9408ft 150kts
05-Mar-17 17:45 33.883953 -116.585326 276 9895ft 151kts
05-Mar-17 17:46 33.888651 -116.638153 276 10003ft 166kts
05-Mar-17 17:47 33.896415 -116.693878 287 10000ft 171kts
05-Mar-17 17:48 33.928892 -116.728343 337 10001ft 171kts
05-Mar-17 17:49 33.948156 -116.772408 265 10002ft 170kts
05-Mar-17 17:50 33.937328 -116.826413 232 10003ft 171kts
05-Mar-17 17:51 33.913019 -116.875661 242 10000ft 172kts
05-Mar-17 17:52 33.891408 -116.924751 242 10235ft 163kts
05-Mar-17 17:53 33.869668 -116.974144 242 10238ft 169kts
05-Mar-17 17:54 33.847595 -117.024222 242 10237ft 170kts
05-Mar-17 17:55 33.825413 -117.074472 242 10237ft 170kts
05-Mar-17 17:56 33.806110 -117.118146 241 10237ft 170kts
05-Mar-17 17:57 33.783828 -117.168486 241 10237ft 170kts
05-Mar-17 17:58 33.776545 -117.223131 271 10238ft 170kts
05-Mar-17 17:59 33.777408 -117.282358 270 9884ft 182kts
05-Mar-17 18:00 33.778061 -117.343608 270 9489ft 184kts
05-Mar-17 18:01 33.778688 -117.405295 270 9093ft 185kts
05-Mar-17 18:02 33.779287 -117.467306 270 8695ft 186kts
05-Mar-17 18:03 33.779858 -117.529625 270 8297ft 186kts
05-Mar-17 18:04 33.780384 -117.590300 270 8236ft 176kts
05-Mar-17 18:05 33.780861 -117.648504 270 8237ft 174kts
05-Mar-17 18:06 33.781310 -117.706809 270 8238ft 174kts
05-Mar-17 18:07 33.776014 -117.763138 242 8135ft 180kts
05-Mar-17 18:08 33.751429 -117.817992 241 7272ft 188kts
05-Mar-17 18:09 33.727576 -117.871023 241 6373ft 180kts
05-Mar-17 18:10 33.704305 -117.922762 241 5465ft 171kts
05-Mar-17 18:11 33.682189 -117.971925 241 4552ft 162kts
05-Mar-17 18:12 33.661071 -118.018866 241 3650ft 159kts
05-Mar-17 18:13 33.647474 -118.068024 272 2755ft 160kts
05-Mar-17 18:14 33.652969 -118.114582 315 2237ft 133kts
05-Mar-17 18:15 33.671551 -118.140609 308 2239ft 93kts
05-Mar-17 18:16 33.689001 -118.166752 308 2242ft 107kts
05-Mar-17 18:17 33.708065 -118.195343 308 2237ft 110kts
05-Mar-17 18:18 33.727248 -118.224137 308 2237ft 111kts
05-Mar-17 18:19 33.746276 -118.252723 308 2237ft 105kts
05-Mar-17 18:20 33.764991 -118.280347 308 1781ft 110kts
05-Mar-17 18:21 33.782698 -118.306845 308 765ft 97kts
05-Mar-17 18:22 33.798364 -118.331028 308 235ft 91kts
05-Mar-17 18:23 33.805802 -118.343597 292 103ft 5kts
05-Mar-17 18:24 33.806137 -118.346999 246 103ft 17kts
05-Mar-17 18:25 33.805160 -118.346863 128 103ft 0kts

Navigation Log

Ident Type
Flight plan parsing failed, navigation log unavailable